createdAt,value
2017-02-23T00:00:29.053Z,0
2017-02-23T00:01:39.812Z,0
2017-02-23T00:02:49.773Z,0
2017-02-23T00:04:00.449Z,0
2017-02-23T00:05:10.832Z,0
2017-02-23T00:06:20.787Z,0
2017-02-23T00:07:31.530Z,0
2017-02-23T00:08:41.899Z,0
2017-02-23T00:09:52.118Z,0
2017-02-23T00:11:02.484Z,0
2017-02-23T00:12:12.819Z,0
2017-02-23T00:13:23.177Z,0
2017-02-23T00:14:33.552Z,0
2017-02-23T00:15:44.160Z,0
2017-02-23T00:16:54.901Z,0
2017-02-23T00:18:05.254Z,0
2017-02-23T00:19:15.618Z,0
2017-02-23T00:20:26.367Z,0
2017-02-23T00:21:37.403Z,0
2017-02-23T00:22:47.765Z,0
2017-02-23T00:23:57.704Z,0
2017-02-23T00:25:08.044Z,0
2017-02-23T00:26:18.462Z,0
2017-02-23T00:27:29.089Z,0
2017-02-23T00:28:39.439Z,0
2017-02-23T00:29:50.209Z,0
2017-02-23T00:30:59.384Z,0
2017-02-23T00:32:10.125Z,0
2017-02-23T00:33:21.105Z,0
2017-02-23T00:34:31.838Z,0
2017-02-23T00:35:41.796Z,0
2017-02-23T00:36:51.751Z,0
2017-02-23T00:38:02.119Z,0
2017-02-23T00:39:12.815Z,0
2017-02-23T00:40:23.169Z,0
2017-02-23T00:41:33.921Z,0
2017-02-23T00:42:44.279Z,0
2017-02-23T00:43:54.260Z,0
2017-02-23T00:45:04.474Z,0
2017-02-23T00:46:15.229Z,0
2017-02-23T00:47:26.000Z,0
2017-02-23T00:48:35.962Z,0
2017-02-23T00:49:46.713Z,0
2017-02-23T00:50:57.366Z,0
2017-02-23T00:52:07.719Z,0
2017-02-23T00:53:17.680Z,0
2017-02-23T00:54:28.049Z,0
2017-02-23T00:55:38.815Z,0
2017-02-23T00:56:49.817Z,0
2017-02-23T00:58:00.195Z,0
2017-02-23T00:59:11.088Z,0
2017-02-23T01:00:21.856Z,0
2017-02-23T01:01:32.646Z,0
2017-02-23T01:02:42.982Z,0
2017-02-23T01:03:53.330Z,0
2017-02-23T01:05:03.692Z,0
2017-02-23T01:06:13.644Z,0
2017-02-23T01:07:23.992Z,0
2017-02-23T01:08:35.036Z,0
2017-02-23T01:09:45.790Z,0
2017-02-23T01:10:56.124Z,0
2017-02-23T01:12:06.866Z,0
2017-02-23T01:13:17.205Z,0
2017-02-23T01:14:27.416Z,0
2017-02-23T01:15:37.778Z,0
2017-02-23T01:16:48.127Z,0
2017-02-23T01:17:58.491Z,0
2017-02-23T01:19:08.850Z,0
2017-02-23T01:20:19.834Z,0
2017-02-23T01:21:29.800Z,0
2017-02-23T01:22:40.147Z,0
2017-02-23T01:23:50.518Z,0
2017-02-23T01:25:00.865Z,0
2017-02-23T01:26:10.283Z,0
2017-02-23T01:27:20.654Z,0
2017-02-23T01:28:31.013Z,0
2017-02-23T01:29:41.745Z,0
2017-02-23T01:30:52.360Z,0
2017-02-23T01:32:03.022Z,0
2017-02-23T01:33:13.765Z,0
2017-02-23T01:34:24.126Z,0
2017-02-23T01:35:34.856Z,0
2017-02-23T01:36:45.598Z,0
2017-02-23T01:37:56.619Z,0
2017-02-23T01:39:06.565Z,0
2017-02-23T01:40:16.508Z,0
2017-02-23T01:41:26.468Z,0
2017-02-23T01:42:37.217Z,0
2017-02-23T01:43:47.835Z,0
2017-02-23T01:44:58.171Z,0
2017-02-23T01:46:08.924Z,0
2017-02-23T01:47:18.892Z,0
2017-02-23T01:48:29.644Z,0
2017-02-23T01:49:40.693Z,0
2017-02-23T01:50:51.441Z,0
2017-02-23T01:52:01.395Z,0
2017-02-23T01:53:11.729Z,0
2017-02-23T01:54:22.483Z,0
2017-02-23T01:55:33.531Z,0
2017-02-23T01:56:43.906Z,0
2017-02-23T01:57:54.261Z,0
2017-02-23T01:59:04.213Z,0
2017-02-23T02:00:14.555Z,0
2017-02-23T02:01:25.594Z,0
2017-02-23T02:02:35.966Z,0
2017-02-23T02:03:45.915Z,0
2017-02-23T02:04:56.239Z,0
2017-02-23T02:06:06.584Z,0
2017-02-23T02:07:16.833Z,0
2017-02-23T02:08:27.582Z,0
2017-02-23T02:09:38.320Z,0
2017-02-23T02:10:49.065Z,0
2017-02-23T02:11:59.797Z,0
2017-02-23T02:13:10.834Z,0
2017-02-23T02:14:21.595Z,0
2017-02-23T02:15:31.532Z,0
2017-02-23T02:16:42.288Z,0
2017-02-23T02:17:53.024Z,0
2017-02-23T02:19:03.711Z,0
2017-02-23T02:20:14.467Z,0
2017-02-23T02:21:24.811Z,0
2017-02-23T02:22:34.792Z,0
2017-02-23T02:23:45.148Z,0
2017-02-23T02:24:56.150Z,0
2017-02-23T02:26:06.492Z,0
2017-02-23T02:27:17.229Z,0
2017-02-23T02:28:27.971Z,0
2017-02-23T02:29:38.753Z,0
2017-02-23T02:30:49.398Z,0
2017-02-23T02:32:00.163Z,0
2017-02-23T02:33:09.715Z,0
2017-02-23T02:34:19.669Z,0
2017-02-23T02:35:30.040Z,0
2017-02-23T02:36:40.262Z,0
2017-02-23T02:37:49.843Z,0
2017-02-23T02:39:00.595Z,0
2017-02-23T02:40:10.543Z,0
2017-02-23T02:41:20.893Z,0
2017-02-23T02:42:31.537Z,0
2017-02-23T02:43:41.879Z,0
2017-02-23T02:44:52.662Z,0
2017-02-23T02:46:03.028Z,0
2017-02-23T02:47:13.756Z,0
2017-02-23T02:48:24.359Z,0
2017-02-23T02:49:35.085Z,0
2017-02-23T02:50:45.829Z,0
2017-02-23T02:51:56.205Z,0
2017-02-23T02:53:06.957Z,0
2017-02-23T02:54:17.949Z,0
2017-02-23T02:55:28.297Z,0
2017-02-23T02:56:38.647Z,0
2017-02-23T02:57:48.996Z,0
2017-02-23T02:58:59.748Z,0
2017-02-23T03:00:10.356Z,0
2017-02-23T03:01:21.127Z,0
2017-02-23T03:02:31.879Z,0
2017-02-23T03:03:42.651Z,0
2017-02-23T03:04:53.403Z,0
2017-02-23T03:06:04.005Z,0
2017-02-23T03:07:14.756Z,0
2017-02-23T03:08:25.099Z,0
2017-02-23T03:09:35.035Z,0
2017-02-23T03:10:45.774Z,0
2017-02-23T03:11:56.779Z,0
2017-02-23T03:13:07.119Z,0
2017-02-23T03:14:17.461Z,0
2017-02-23T03:15:28.228Z,0
2017-02-23T03:16:38.564Z,0
2017-02-23T03:17:49.615Z,0
2017-02-23T03:18:59.585Z,0
2017-02-23T03:20:09.131Z,0
2017-02-23T03:21:19.482Z,0
2017-02-23T03:22:30.225Z,0
2017-02-23T03:23:40.853Z,0
2017-02-23T03:24:51.253Z,0
2017-02-23T03:26:01.589Z,0
2017-02-23T03:27:12.327Z,0
2017-02-23T03:28:22.702Z,0
2017-02-23T03:29:32.962Z,0
2017-02-23T03:30:43.317Z,0
2017-02-23T03:31:53.256Z,0
2017-02-23T03:33:03.598Z,0
2017-02-23T03:34:13.557Z,0
2017-02-23T03:35:23.778Z,0
2017-02-23T03:36:34.102Z,0
2017-02-23T03:37:44.444Z,0
2017-02-23T03:38:54.392Z,0
2017-02-23T03:40:04.751Z,0
2017-02-23T03:41:14.613Z,0
2017-02-23T03:42:24.578Z,0
2017-02-23T03:43:34.927Z,0
2017-02-23T03:44:45.285Z,0
2017-02-23T03:45:55.637Z,0
2017-02-23T03:47:06.246Z,0
2017-02-23T03:48:16.201Z,0
2017-02-23T03:49:26.172Z,0
2017-02-23T03:50:36.541Z,0
2017-02-23T03:51:46.892Z,0
2017-02-23T03:52:55.913Z,0
2017-02-23T03:54:06.275Z,0
2017-02-23T03:55:17.037Z,0
2017-02-23T03:56:27.373Z,0
2017-02-23T03:57:36.956Z,0
2017-02-23T03:58:47.593Z,0
2017-02-23T03:59:57.946Z,0
2017-02-23T04:01:08.317Z,0
2017-02-23T04:02:18.288Z,0
2017-02-23T04:03:28.647Z,0
2017-02-23T04:04:38.461Z,0
2017-02-23T04:05:49.198Z,0
2017-02-23T04:06:59.169Z,0
2017-02-23T04:08:09.139Z,0
2017-02-23T04:09:19.498Z,0
2017-02-23T04:10:30.157Z,0
2017-02-23T04:11:40.128Z,0
2017-02-23T04:12:50.490Z,0
2017-02-23T04:14:00.846Z,0
2017-02-23T04:15:11.220Z,0
2017-02-23T04:16:21.483Z,0
2017-02-23T04:17:31.822Z,0
2017-02-23T04:18:42.561Z,0
2017-02-23T04:19:52.109Z,0
2017-02-23T04:21:02.073Z,0
2017-02-23T04:22:13.128Z,0
2017-02-23T04:23:23.115Z,0
2017-02-23T04:24:33.061Z,0
2017-02-23T04:25:43.413Z,0
2017-02-23T04:26:53.771Z,0
2017-02-23T04:28:04.367Z,0
2017-02-23T04:29:14.706Z,0
2017-02-23T04:30:25.057Z,0
2017-02-23T04:31:35.812Z,0
2017-02-23T04:32:46.551Z,0
2017-02-23T04:33:57.157Z,0
2017-02-23T04:35:07.099Z,0
2017-02-23T04:36:17.083Z,0
2017-02-23T04:37:27.825Z,0
2017-02-23T04:38:38.574Z,0
2017-02-23T04:39:49.198Z,0
2017-02-23T04:40:59.553Z,0
2017-02-23T04:42:09.892Z,0
2017-02-23T04:43:20.229Z,0
2017-02-23T04:44:30.590Z,0
2017-02-23T04:45:41.275Z,0
2017-02-23T04:46:52.021Z,0
2017-02-23T04:48:02.001Z,0
2017-02-23T04:49:11.946Z,0
2017-02-23T04:50:22.337Z,0
2017-02-23T04:51:32.587Z,0
2017-02-23T04:52:43.357Z,0
2017-02-23T04:53:53.704Z,0
2017-02-23T04:55:04.091Z,0
2017-02-23T04:56:13.269Z,0
2017-02-23T04:57:23.477Z,0
2017-02-23T04:58:33.444Z,0
2017-02-23T04:59:43.802Z,0
2017-02-23T05:00:54.146Z,0
2017-02-23T05:02:04.881Z,0
2017-02-23T05:03:15.150Z,0
2017-02-23T05:04:25.945Z,0
2017-02-23T05:05:36.702Z,0
2017-02-23T05:06:47.473Z,0
2017-02-23T05:07:57.838Z,0
2017-02-23T05:09:08.823Z,0
2017-02-23T05:10:19.150Z,0
2017-02-23T05:11:29.904Z,0
2017-02-23T05:12:40.642Z,0
2017-02-23T05:13:50.599Z,0
2017-02-23T05:15:01.635Z,0
2017-02-23T05:16:11.995Z,0
2017-02-23T05:17:22.361Z,0
2017-02-23T05:18:32.708Z,0
2017-02-23T05:19:42.655Z,0
2017-02-23T05:20:52.856Z,0
2017-02-23T05:22:03.621Z,0
2017-02-23T05:23:14.411Z,0
2017-02-23T05:24:24.747Z,0
2017-02-23T05:25:35.300Z,0
2017-02-23T05:26:46.008Z,0
2017-02-23T05:27:56.747Z,0
2017-02-23T05:29:07.122Z,0
2017-02-23T05:30:17.093Z,0
2017-02-23T05:31:27.447Z,0
2017-02-23T05:32:38.488Z,0
2017-02-23T05:33:48.850Z,0
2017-02-23T05:34:59.230Z,0
2017-02-23T05:36:09.617Z,0
2017-02-23T05:37:19.204Z,0
2017-02-23T05:38:29.802Z,0
2017-02-23T05:39:40.551Z,0
2017-02-23T05:40:51.298Z,0
2017-02-23T05:42:01.673Z,4
2017-02-23T05:43:12.067Z,4
2017-02-23T05:44:22.664Z,0
2017-02-23T05:45:32.616Z,4
2017-02-23T05:46:42.980Z,8
2017-02-23T05:47:53.717Z,4
2017-02-23T05:49:04.469Z,4
2017-02-23T05:50:14.811Z,8
2017-02-23T05:51:25.148Z,8
2017-02-23T05:52:35.102Z,12
2017-02-23T05:53:45.471Z,12
2017-02-23T05:54:56.213Z,16
2017-02-23T05:56:06.025Z,20
2017-02-23T05:57:16.766Z,20
2017-02-23T05:58:27.510Z,24
2017-02-23T05:59:38.261Z,28
2017-02-23T06:00:49.014Z,32
2017-02-23T06:01:59.624Z,36
2017-02-23T06:03:10.374Z,40
2017-02-23T06:04:20.759Z,44
2017-02-23T06:05:31.526Z,44
2017-02-23T06:06:41.883Z,52
2017-02-23T06:07:52.514Z,56
2017-02-23T06:09:02.879Z,64
2017-02-23T06:10:13.244Z,72
2017-02-23T06:11:23.605Z,76
2017-02-23T06:12:34.351Z,88
2017-02-23T06:13:44.988Z,96
2017-02-23T06:14:55.349Z,108
2017-02-23T06:16:05.724Z,120
2017-02-23T06:17:16.095Z,128
2017-02-23T06:18:26.463Z,136
2017-02-23T06:19:37.455Z,144
2017-02-23T06:20:48.223Z,156
2017-02-23T06:21:58.965Z,160
2017-02-23T06:23:09.727Z,176
2017-02-23T06:24:20.064Z,188
2017-02-23T06:25:30.780Z,204
2017-02-23T06:26:40.350Z,220
2017-02-23T06:27:49.923Z,232
2017-02-23T06:29:00.313Z,248
2017-02-23T06:30:10.676Z,268
2017-02-23T06:31:21.653Z,284
2017-02-23T06:32:31.996Z,292
2017-02-23T06:33:42.335Z,308
2017-02-23T06:34:52.687Z,336
2017-02-23T06:36:03.456Z,368
2017-02-23T06:37:14.489Z,408
2017-02-23T06:38:25.263Z,432
2017-02-23T06:39:36.025Z,448
2017-02-23T06:40:46.374Z,460
2017-02-23T06:41:56.355Z,460
2017-02-23T06:43:06.572Z,436
2017-02-23T06:44:16.560Z,432
2017-02-23T06:45:26.908Z,440
2017-02-23T06:46:37.263Z,440
2017-02-23T06:47:47.715Z,448
2017-02-23T06:48:58.300Z,476
2017-02-23T06:50:08.672Z,484
2017-02-23T06:51:19.427Z,464
2017-02-23T06:52:30.210Z,468
2017-02-23T06:53:40.982Z,452
2017-02-23T06:54:51.596Z,444
2017-02-23T06:56:02.344Z,436
2017-02-23T06:57:13.072Z,420
2017-02-23T06:58:23.436Z,400
2017-02-23T06:59:33.773Z,372
2017-02-23T07:00:44.760Z,352
2017-02-23T07:01:54.723Z,344
2017-02-23T07:03:04.690Z,336
2017-02-23T07:04:15.045Z,360
2017-02-23T07:05:25.431Z,392
2017-02-23T07:06:36.429Z,456
2017-02-23T07:07:46.399Z,484
2017-02-23T07:08:56.773Z,484
2017-02-23T07:10:07.549Z,448
2017-02-23T07:11:18.309Z,436
2017-02-23T07:12:29.358Z,492
2017-02-23T07:13:40.156Z,496
2017-02-23T07:14:51.518Z,508
2017-02-23T07:16:02.264Z,524
2017-02-23T07:17:12.219Z,536
2017-02-23T07:18:22.859Z,552
2017-02-23T07:19:33.623Z,568
2017-02-23T07:20:44.428Z,564
2017-02-23T07:21:55.191Z,580
2017-02-23T07:23:04.772Z,604
2017-02-23T07:24:15.387Z,632
2017-02-23T07:25:26.373Z,680
2017-02-23T07:26:35.947Z,712
2017-02-23T07:27:46.312Z,708
2017-02-23T07:28:57.223Z,720
2017-02-23T07:30:07.198Z,784
2017-02-23T07:31:17.211Z,860
2017-02-23T07:32:27.573Z,984
2017-02-23T07:33:38.398Z,1252
2017-02-23T07:34:49.166Z,1468
2017-02-23T07:35:59.543Z,1632
2017-02-23T07:37:09.917Z,1740
2017-02-23T07:38:20.692Z,1608
2017-02-23T07:39:31.455Z,1320
2017-02-23T07:40:42.449Z,1068
2017-02-23T07:41:53.248Z,972
2017-02-23T07:43:03.607Z,1000
2017-02-23T07:44:13.948Z,1012
2017-02-23T07:45:24.354Z,1044
2017-02-23T07:46:34.693Z,1076
2017-02-23T07:47:45.451Z,1100
2017-02-23T07:48:56.288Z,1100
2017-02-23T07:50:06.254Z,1104
2017-02-23T07:51:17.044Z,1112
2017-02-23T07:52:27.812Z,1072
2017-02-23T07:53:38.750Z,1036
2017-02-23T07:54:48.910Z,1036
2017-02-23T07:55:59.281Z,1040
2017-02-23T07:57:10.079Z,1160
2017-02-23T07:58:20.772Z,1256
2017-02-23T07:59:31.164Z,1372
2017-02-23T08:00:41.934Z,1432
2017-02-23T08:01:52.325Z,1460
2017-02-23T08:03:02.366Z,1464
2017-02-23T08:04:13.459Z,1544
2017-02-23T08:05:24.222Z,1540
2017-02-23T08:06:34.570Z,1504
2017-02-23T08:07:44.586Z,1516
2017-02-23T08:08:55.391Z,1516
2017-02-23T08:10:06.406Z,1560
2017-02-23T08:11:16.780Z,1556
2017-02-23T08:12:26.792Z,1584
2017-02-23T08:13:37.434Z,1548
2017-02-23T08:14:48.297Z,1528
2017-02-23T08:15:59.054Z,1592
2017-02-23T08:17:10.080Z,1620
2017-02-23T08:18:20.091Z,1576
2017-02-23T08:19:30.466Z,1608
2017-02-23T08:20:40.465Z,1636
2017-02-23T08:21:51.803Z,1692
2017-02-23T08:23:01.752Z,1740
2017-02-23T08:24:12.150Z,1688
2017-02-23T08:25:22.899Z,1628
2017-02-23T08:26:33.278Z,1620
2017-02-23T08:27:43.879Z,1600
2017-02-23T08:28:54.271Z,1724
2017-02-23T08:30:05.036Z,1832
2017-02-23T08:31:15.810Z,1688
2017-02-23T08:32:26.168Z,1388
2017-02-23T08:33:36.356Z,1168
2017-02-23T08:34:47.137Z,1088
2017-02-23T08:35:57.497Z,1080
2017-02-23T08:37:07.474Z,1180
2017-02-23T08:38:17.826Z,1284
2017-02-23T08:39:28.453Z,1352
2017-02-23T08:40:39.192Z,1344
2017-02-23T08:41:49.970Z,1256
2017-02-23T08:43:00.718Z,1244
2017-02-23T08:44:11.073Z,1296
2017-02-23T08:45:21.361Z,1332
2017-02-23T08:46:31.700Z,1404
2017-02-23T08:47:42.065Z,1508
2017-02-23T08:48:52.436Z,1572
2017-02-23T08:50:03.210Z,1552
2017-02-23T08:51:13.864Z,1552
2017-02-23T08:52:24.247Z,1592
2017-02-23T08:53:34.615Z,1700
2017-02-23T08:54:45.419Z,1840
2017-02-23T08:55:56.184Z,1944
2017-02-23T08:57:06.806Z,1956
2017-02-23T08:58:16.796Z,1840
2017-02-23T08:59:27.540Z,1712
2017-02-23T09:00:37.508Z,1624
2017-02-23T09:01:47.863Z,1508
2017-02-23T09:02:58.982Z,1348
2017-02-23T09:04:09.349Z,1232
2017-02-23T09:05:19.340Z,1132
2017-02-23T09:06:30.142Z,1060
2017-02-23T09:07:40.880Z,1040
2017-02-23T09:08:51.911Z,1052
2017-02-23T09:10:01.873Z,1052
2017-02-23T09:11:12.643Z,1040
2017-02-23T09:12:23.013Z,1068
2017-02-23T09:13:33.795Z,1108
2017-02-23T09:14:44.463Z,1120
2017-02-23T09:15:54.876Z,1108
2017-02-23T09:17:05.260Z,1088
2017-02-23T09:18:15.620Z,1024
2017-02-23T09:19:25.977Z,988
2017-02-23T09:20:37.227Z,956
2017-02-23T09:21:47.983Z,936
2017-02-23T09:22:57.948Z,956
2017-02-23T09:24:08.319Z,1016
2017-02-23T09:25:18.706Z,1108
2017-02-23T09:26:29.813Z,1192
2017-02-23T09:27:40.621Z,1228
2017-02-23T09:28:51.394Z,1192
2017-02-23T09:30:01.763Z,1128
2017-02-23T09:31:12.137Z,1040
2017-02-23T09:32:22.819Z,980
2017-02-23T09:33:33.598Z,920
2017-02-23T09:34:44.345Z,928
2017-02-23T09:35:55.094Z,1048
2017-02-23T09:37:05.890Z,1196
2017-02-23T09:38:16.553Z,1368
2017-02-23T09:39:26.520Z,1540
2017-02-23T09:40:36.495Z,1732
2017-02-23T09:41:46.876Z,1908
2017-02-23T09:42:57.727Z,1912
2017-02-23T09:44:08.742Z,1716
2017-02-23T09:45:19.103Z,1452
2017-02-23T09:46:29.858Z,1320
2017-02-23T09:47:40.245Z,1284
2017-02-23T09:48:50.205Z,1232
2017-02-23T09:50:00.911Z,1172
2017-02-23T09:51:11.700Z,1144
2017-02-23T09:52:22.496Z,1136
2017-02-23T09:53:32.876Z,1156
2017-02-23T09:54:43.634Z,1268
2017-02-23T09:55:54.354Z,1368
2017-02-23T09:57:05.138Z,1452
2017-02-23T09:58:15.529Z,1564
2017-02-23T09:59:25.519Z,1792
2017-02-23T10:00:35.898Z,1964
2017-02-23T10:01:46.185Z,2036
2017-02-23T10:02:56.162Z,2100
2017-02-23T10:04:05.745Z,2144
2017-02-23T10:05:16.549Z,2028
2017-02-23T10:06:27.362Z,1776
2017-02-23T10:07:37.640Z,1676
2017-02-23T10:08:48.426Z,1564
2017-02-23T10:09:58.594Z,1592
2017-02-23T10:11:08.962Z,1788
2017-02-23T10:12:19.726Z,1824
2017-02-23T10:13:30.392Z,1860
2017-02-23T10:14:39.954Z,1972
2017-02-23T10:15:50.735Z,2128
2017-02-23T10:17:01.109Z,2032
2017-02-23T10:18:11.877Z,2096
2017-02-23T10:19:22.969Z,2208
2017-02-23T10:20:33.375Z,2176
2017-02-23T10:21:43.761Z,2068
2017-02-23T10:22:54.120Z,2020
2017-02-23T10:24:03.685Z,1940
2017-02-23T10:25:14.768Z,1812
2017-02-23T10:26:25.134Z,1672
2017-02-23T10:27:35.508Z,1580
2017-02-23T10:28:45.874Z,1604
2017-02-23T10:29:56.631Z,1692
2017-02-23T10:31:06.926Z,1852
2017-02-23T10:32:16.955Z,1984
2017-02-23T10:33:27.715Z,2128
2017-02-23T10:34:37.685Z,2132
2017-02-23T10:35:48.081Z,2060
2017-02-23T10:36:59.141Z,1908
2017-02-23T10:38:09.549Z,1636
2017-02-23T10:39:19.540Z,1584
2017-02-23T10:40:29.119Z,1632
2017-02-23T10:41:39.872Z,1800
2017-02-23T10:42:50.606Z,1992
2017-02-23T10:44:01.380Z,2068
2017-02-23T10:45:12.123Z,2064
2017-02-23T10:46:23.106Z,1992
2017-02-23T10:47:33.050Z,2140
2017-02-23T10:48:43.709Z,2140
2017-02-23T10:49:54.082Z,2012
2017-02-23T10:51:04.439Z,1944
2017-02-23T10:52:15.207Z,1924
2017-02-23T10:53:25.987Z,1924
2017-02-23T10:54:37.054Z,2060
2017-02-23T10:55:47.877Z,2108
2017-02-23T10:56:58.641Z,2076
2017-02-23T10:58:09.051Z,1968
2017-02-23T10:59:19.809Z,2028
2017-02-23T11:00:30.540Z,2004
2017-02-23T11:01:40.914Z,1920
2017-02-23T11:02:51.687Z,2040
2017-02-23T11:04:02.661Z,1872
2017-02-23T11:05:12.265Z,1868
2017-02-23T11:06:22.951Z,1900
2017-02-23T11:07:33.711Z,2220
2017-02-23T11:08:44.503Z,2396
2017-02-23T11:09:55.261Z,2068
2017-02-23T11:11:06.014Z,1764
2017-02-23T11:12:17.125Z,1752
2017-02-23T11:13:27.893Z,1844
2017-02-23T11:14:38.702Z,1788
2017-02-23T11:15:49.489Z,1608
2017-02-23T11:17:00.244Z,1708
2017-02-23T11:18:11.437Z,1712
2017-02-23T11:19:22.195Z,1532
2017-02-23T11:20:31.764Z,1500
2017-02-23T11:21:41.320Z,1412
2017-02-23T11:22:51.338Z,1320
2017-02-23T11:24:01.268Z,1232
2017-02-23T11:25:12.035Z,1296
2017-02-23T11:26:22.045Z,1376
2017-02-23T11:27:32.420Z,1164
2017-02-23T11:28:43.198Z,1096
2017-02-23T11:29:53.873Z,900
2017-02-23T11:31:04.670Z,896
2017-02-23T11:32:14.637Z,1048
2017-02-23T11:33:25.400Z,956
2017-02-23T11:34:35.835Z,744
2017-02-23T11:35:46.538Z,588
2017-02-23T11:36:56.919Z,580
2017-02-23T11:38:07.674Z,592
2017-02-23T11:39:18.432Z,708
2017-02-23T11:40:28.388Z,1048
2017-02-23T11:41:39.447Z,1228
2017-02-23T11:42:49.424Z,868
2017-02-23T11:43:59.787Z,844
2017-02-23T11:45:10.531Z,888
2017-02-23T11:46:21.656Z,1052
2017-02-23T11:47:32.718Z,840
2017-02-23T11:48:42.719Z,868
2017-02-23T11:49:53.497Z,896
2017-02-23T11:51:03.860Z,972
2017-02-23T11:52:14.647Z,936
2017-02-23T11:53:25.703Z,884
2017-02-23T11:54:36.061Z,924
2017-02-23T11:55:45.673Z,784
2017-02-23T11:56:56.120Z,788
2017-02-23T11:58:06.915Z,828
2017-02-23T11:59:17.635Z,1016
2017-02-23T12:00:28.013Z,1040
2017-02-23T12:01:38.787Z,932
2017-02-23T12:02:49.406Z,1076
2017-02-23T12:04:00.176Z,1168
2017-02-23T12:05:10.461Z,1072
2017-02-23T12:06:21.239Z,612
2017-02-23T12:07:31.603Z,616
2017-02-23T12:08:41.959Z,776
2017-02-23T12:09:52.317Z,1040
2017-02-23T12:11:03.395Z,980
2017-02-23T12:12:13.785Z,940
2017-02-23T12:13:24.157Z,1148
2017-02-23T12:14:34.901Z,1264
2017-02-23T12:15:45.696Z,1032
2017-02-23T12:16:55.571Z,916
2017-02-23T12:18:05.968Z,812
2017-02-23T12:19:16.326Z,704
2017-02-23T12:20:26.672Z,640
2017-02-23T12:21:37.053Z,840
2017-02-23T12:22:48.127Z,908
2017-02-23T12:23:58.113Z,1080
2017-02-23T12:25:08.489Z,1168
2017-02-23T12:26:18.489Z,1048
2017-02-23T12:27:29.282Z,1056
2017-02-23T12:28:39.554Z,1120
2017-02-23T12:29:49.923Z,1152
2017-02-23T12:30:59.922Z,1132
2017-02-23T12:32:10.697Z,1088
2017-02-23T12:33:21.468Z,1168
2017-02-23T12:34:32.166Z,1080
2017-02-23T12:35:42.534Z,1072
2017-02-23T12:36:53.334Z,1280
2017-02-23T12:38:04.124Z,1140
2017-02-23T12:39:14.882Z,1216
2017-02-23T12:40:25.986Z,1248
2017-02-23T12:41:35.971Z,1216
2017-02-23T12:42:46.417Z,1148
2017-02-23T12:43:56.782Z,832
2017-02-23T12:45:06.805Z,808
2017-02-23T12:46:17.897Z,672
2017-02-23T12:47:28.258Z,688
2017-02-23T12:48:37.875Z,772
2017-02-23T12:49:48.642Z,540
2017-02-23T12:50:58.616Z,528
2017-02-23T12:52:08.494Z,560
2017-02-23T12:53:18.850Z,468
2017-02-23T12:54:29.227Z,608
2017-02-23T12:55:39.231Z,716
2017-02-23T12:56:49.614Z,700
2017-02-23T12:57:59.877Z,432
2017-02-23T12:59:10.266Z,348
2017-02-23T13:00:20.865Z,356
2017-02-23T13:01:30.847Z,424
2017-02-23T13:02:41.615Z,496
2017-02-23T13:03:51.573Z,572
2017-02-23T13:05:02.352Z,564
2017-02-23T13:06:12.724Z,608
2017-02-23T13:07:22.680Z,740
2017-02-23T13:08:33.793Z,1004
2017-02-23T13:09:44.547Z,1044
2017-02-23T13:10:54.903Z,888
2017-02-23T13:12:04.875Z,748
2017-02-23T13:13:15.252Z,576
2017-02-23T13:14:25.977Z,436
2017-02-23T13:15:36.577Z,416
2017-02-23T13:16:46.938Z,380
2017-02-23T13:17:57.707Z,324
2017-02-23T13:19:08.480Z,328
2017-02-23T13:20:19.582Z,312
2017-02-23T13:21:30.349Z,280
2017-02-23T13:22:40.705Z,312
2017-02-23T13:23:51.077Z,336
2017-02-23T13:25:01.817Z,340
2017-02-23T13:26:12.891Z,364
2017-02-23T13:27:23.682Z,412
2017-02-23T13:28:34.053Z,436
2017-02-23T13:29:44.440Z,436
2017-02-23T13:30:54.824Z,444
2017-02-23T13:32:05.875Z,420
2017-02-23T13:33:16.625Z,544
2017-02-23T13:34:27.406Z,392
2017-02-23T13:35:37.769Z,448
2017-02-23T13:36:48.536Z,520
2017-02-23T13:37:59.142Z,384
2017-02-23T13:39:10.274Z,492
2017-02-23T13:40:21.064Z,488
2017-02-23T13:41:31.067Z,384
2017-02-23T13:42:41.858Z,352
2017-02-23T13:43:52.569Z,404
2017-02-23T13:45:02.144Z,436
2017-02-23T13:46:12.545Z,384
2017-02-23T13:47:23.325Z,380
2017-02-23T13:48:34.110Z,492
2017-02-23T13:49:44.815Z,584
2017-02-23T13:50:55.180Z,460
2017-02-23T13:52:05.555Z,512
2017-02-23T13:53:15.561Z,468
2017-02-23T13:54:25.949Z,516
2017-02-23T13:55:36.623Z,536
2017-02-23T13:56:46.989Z,404
2017-02-23T13:57:57.737Z,352
2017-02-23T13:59:07.705Z,644
2017-02-23T14:00:18.052Z,800
2017-02-23T14:01:29.131Z,804
2017-02-23T14:02:38.768Z,792
2017-02-23T14:03:49.140Z,512
2017-02-23T14:04:59.103Z,560
2017-02-23T14:06:09.885Z,376
2017-02-23T14:07:21.114Z,368
2017-02-23T14:08:31.748Z,400
2017-02-23T14:09:42.518Z,324
2017-02-23T14:10:52.483Z,284
2017-02-23T14:12:03.288Z,316
2017-02-23T14:13:13.533Z,352
2017-02-23T14:14:23.876Z,460
2017-02-23T14:15:34.627Z,440
2017-02-23T14:16:45.424Z,488
2017-02-23T14:17:56.176Z,500
2017-02-23T14:19:06.960Z,416
2017-02-23T14:20:17.370Z,344
2017-02-23T14:21:27.750Z,392
2017-02-23T14:22:38.151Z,368
2017-02-23T14:23:48.109Z,356
2017-02-23T14:24:58.793Z,428
2017-02-23T14:26:09.548Z,464
2017-02-23T14:27:19.918Z,448
2017-02-23T14:28:30.291Z,416
2017-02-23T14:29:41.053Z,400
2017-02-23T14:30:52.122Z,376
2017-02-23T14:32:02.888Z,360
2017-02-23T14:33:12.830Z,396
2017-02-23T14:34:22.785Z,388
2017-02-23T14:35:33.553Z,364
2017-02-23T14:36:49.329Z,336
2017-02-23T14:37:59.332Z,352
2017-02-23T14:39:09.719Z,344
2017-02-23T14:40:20.509Z,376
2017-02-23T14:41:30.895Z,396
2017-02-23T14:42:42.011Z,392
2017-02-23T14:43:52.680Z,456
2017-02-23T14:45:03.039Z,348
2017-02-23T14:46:13.792Z,324
2017-02-23T14:47:24.595Z,304
2017-02-23T14:48:35.735Z,300
2017-02-23T14:49:45.707Z,328
2017-02-23T14:50:55.658Z,340
2017-02-23T14:52:06.058Z,388
2017-02-23T14:53:17.077Z,412
2017-02-23T14:54:27.771Z,576
2017-02-23T14:55:38.162Z,532
2017-02-23T14:56:48.548Z,476
2017-02-23T14:57:58.506Z,532
2017-02-23T14:59:08.869Z,572
2017-02-23T15:00:19.544Z,620
2017-02-23T15:01:29.932Z,520
2017-02-23T15:02:40.731Z,452
2017-02-23T15:03:51.496Z,444
2017-02-23T15:05:02.264Z,424
2017-02-23T15:06:12.945Z,372
2017-02-23T15:07:23.683Z,360
2017-02-23T15:08:34.443Z,372
2017-02-23T15:09:45.217Z,364
2017-02-23T15:10:55.579Z,420
2017-02-23T15:12:05.805Z,496
2017-02-23T15:13:16.171Z,512
2017-02-23T15:14:26.939Z,572
2017-02-23T15:15:37.304Z,536
2017-02-23T15:16:47.693Z,584
2017-02-23T15:17:58.373Z,548
2017-02-23T15:19:08.745Z,456
2017-02-23T15:20:19.128Z,396
2017-02-23T15:21:29.519Z,372
2017-02-23T15:22:39.101Z,324
2017-02-23T15:23:50.180Z,252
2017-02-23T15:25:00.542Z,240
2017-02-23T15:26:10.933Z,208
2017-02-23T15:27:21.306Z,216
2017-02-23T15:28:32.076Z,192
2017-02-23T15:29:42.318Z,196
2017-02-23T15:30:52.703Z,188
2017-02-23T15:32:02.662Z,168
2017-02-23T15:33:13.060Z,156
2017-02-23T15:34:23.446Z,140
2017-02-23T15:35:33.704Z,104
2017-02-23T15:36:43.689Z,112
2017-02-23T15:37:54.470Z,132
2017-02-23T15:39:04.859Z,136
2017-02-23T15:40:15.627Z,136
2017-02-23T15:41:25.858Z,148
2017-02-23T15:42:35.423Z,140
2017-02-23T15:43:45.791Z,148
2017-02-23T15:44:56.579Z,132
2017-02-23T15:46:06.936Z,124
2017-02-23T15:47:17.554Z,128
2017-02-23T15:48:28.303Z,140
2017-02-23T15:49:39.065Z,164
2017-02-23T15:50:49.055Z,188
2017-02-23T15:51:59.810Z,184
2017-02-23T15:53:10.140Z,188
2017-02-23T15:54:20.527Z,224
2017-02-23T15:55:30.905Z,216
2017-02-23T15:56:41.683Z,204
2017-02-23T15:57:52.459Z,180
2017-02-23T15:59:02.282Z,168
2017-02-23T16:00:13.042Z,204
2017-02-23T16:01:23.801Z,212
2017-02-23T16:02:34.564Z,188
2017-02-23T16:03:45.327Z,184
2017-02-23T16:04:56.392Z,196
2017-02-23T16:06:06.764Z,184
2017-02-23T16:07:17.123Z,164
2017-02-23T16:08:26.697Z,140
2017-02-23T16:09:37.049Z,108
2017-02-23T16:10:47.654Z,100
2017-02-23T16:11:58.025Z,96
2017-02-23T16:13:08.402Z,72
2017-02-23T16:14:18.774Z,72
2017-02-23T16:15:29.540Z,68
2017-02-23T16:16:40.552Z,56
2017-02-23T16:17:50.917Z,64
2017-02-23T16:19:01.667Z,76
2017-02-23T16:20:12.415Z,64
2017-02-23T16:21:23.175Z,56
2017-02-23T16:22:33.431Z,52
2017-02-23T16:23:43.801Z,48
2017-02-23T16:24:54.570Z,44
2017-02-23T16:26:04.936Z,40
2017-02-23T16:27:15.715Z,36